sensor_id;sensor_type;location;lat;lon;timestamp;P1;durP1;ratioP1;P2;durP2;ratioP2
47523;SDS011;33253;42.144;25.884;2023-10-13T00:01:55;12.60;;;4.20;;
47523;SDS011;33253;42.144;25.884;2023-10-13T00:04:24;7.38;;;3.33;;
47523;SDS011;33253;42.144;25.884;2023-10-13T00:06:53;7.77;;;3.37;;
47523;SDS011;33253;42.144;25.884;2023-10-13T00:09:21;9.47;;;3.23;;
47523;SDS011;33253;42.144;25.884;2023-10-13T00:11:50;8.00;;;3.53;;
47523;SDS011;33253;42.144;25.884;2023-10-13T00:14:17;8.98;;;3.60;;
47523;SDS011;33253;42.144;25.884;2023-10-13T00:16:45;6.30;;;3.80;;
47523;SDS011;33253;42.144;25.884;2023-10-13T00:19:27;16.00;;;4.03;;
47523;SDS011;33253;42.144;25.884;2023-10-13T00:21:53;10.40;;;3.90;;
47523;SDS011;33253;42.144;25.884;2023-10-13T00:24:21;9.80;;;3.90;;
47523;SDS011;33253;42.144;25.884;2023-10-13T00:26:48;13.85;;;3.70;;
47523;SDS011;33253;42.144;25.884;2023-10-13T00:29:14;16.38;;;3.97;;
47523;SDS011;33253;42.144;25.884;2023-10-13T00:31:43;8.35;;;3.47;;
47523;SDS011;33253;42.144;25.884;2023-10-13T00:34:13;12.07;;;3.90;;
47523;SDS011;33253;42.144;25.884;2023-10-13T00:36:50;26.83;;;4.70;;
47523;SDS011;33253;42.144;25.884;2023-10-13T00:39:34;8.90;;;3.30;;
47523;SDS011;33253;42.144;25.884;2023-10-13T00:42:04;9.52;;;4.35;;
47523;SDS011;33253;42.144;25.884;2023-10-13T00:44:34;6.80;;;3.50;;
47523;SDS011;33253;42.144;25.884;2023-10-13T00:47:09;10.05;;;3.63;;
47523;SDS011;33253;42.144;25.884;2023-10-13T00:49:41;8.82;;;3.40;;
47523;SDS011;33253;42.144;25.884;2023-10-13T00:52:12;5.93;;;3.60;;
47523;SDS011;33253;42.144;25.884;2023-10-13T00:54:40;7.57;;;2.88;;
47523;SDS011;33253;42.144;25.884;2023-10-13T00:57:13;10.68;;;3.22;;
47523;SDS011;33253;42.144;25.884;2023-10-13T00:59:52;14.07;;;3.72;;
47523;SDS011;33253;42.144;25.884;2023-10-13T01:02:21;9.80;;;4.50;;
47523;SDS011;33253;42.144;25.884;2023-10-13T01:05:05;9.05;;;3.53;;
47523;SDS011;33253;42.144;25.884;2023-10-13T01:10:02;8.05;;;3.92;;
47523;SDS011;33253;42.144;25.884;2023-10-13T01:12:38;11.70;;;3.20;;
47523;SDS011;33253;42.144;25.884;2023-10-13T01:15:03;9.10;;;3.13;;
47523;SDS011;33253;42.144;25.884;2023-10-13T01:17:36;9.05;;;3.15;;
47523;SDS011;33253;42.144;25.884;2023-10-13T01:20:02;6.70;;;3.13;;
47523;SDS011;33253;42.144;25.884;2023-10-13T01:22:30;8.65;;;3.67;;
47523;SDS011;33253;42.144;25.884;2023-10-13T01:24:57;5.05;;;2.88;;
47523;SDS011;33253;42.144;25.884;2023-10-13T01:27:31;6.47;;;3.15;;
47523;SDS011;33253;42.144;25.884;2023-10-13T01:29:56;8.63;;;3.63;;
47523;SDS011;33253;42.144;25.884;2023-10-13T01:32:30;8.98;;;3.22;;
47523;SDS011;33253;42.144;25.884;2023-10-13T01:34:56;5.78;;;3.20;;
47523;SDS011;33253;42.144;25.884;2023-10-13T01:37:23;7.88;;;3.25;;
47523;SDS011;33253;42.144;25.884;2023-10-13T01:39:48;11.05;;;3.55;;
47523;SDS011;33253;42.144;25.884;2023-10-13T01:42:15;6.88;;;3.45;;
47523;SDS011;33253;42.144;25.884;2023-10-13T01:44:48;7.40;;;3.33;;
47523;SDS011;33253;42.144;25.884;2023-10-13T01:47:14;9.02;;;3.53;;
47523;SDS011;33253;42.144;25.884;2023-10-13T01:49:41;9.85;;;4.15;;
47523;SDS011;33253;42.144;25.884;2023-10-13T01:52:15;8.00;;;3.00;;
47523;SDS011;33253;42.144;25.884;2023-10-13T01:54:41;13.10;;;4.43;;
47523;SDS011;33253;42.144;25.884;2023-10-13T01:57:09;9.80;;;2.97;;
47523;SDS011;33253;42.144;25.884;2023-10-13T01:59:40;8.75;;;3.17;;
47523;SDS011;33253;42.144;25.884;2023-10-13T02:02:09;7.35;;;2.92;;
47523;SDS011;33253;42.144;25.884;2023-10-13T02:04:37;7.97;;;3.05;;
47523;SDS011;33253;42.144;25.884;2023-10-13T02:07:07;8.18;;;3.03;;
47523;SDS011;33253;42.144;25.884;2023-10-13T02:09:33;7.60;;;3.00;;
47523;SDS011;33253;42.144;25.884;2023-10-13T02:12:02;11.02;;;3.15;;
47523;SDS011;33253;42.144;25.884;2023-10-13T02:14:27;7.75;;;2.97;;
47523;SDS011;33253;42.144;25.884;2023-10-13T02:16:53;7.93;;;2.88;;
47523;SDS011;33253;42.144;25.884;2023-10-13T02:19:36;6.78;;;2.60;;
47523;SDS011;33253;42.144;25.884;2023-10-13T02:22:05;8.07;;;3.50;;
47523;SDS011;33253;42.144;25.884;2023-10-13T02:24:34;7.38;;;3.33;;
47523;SDS011;33253;42.144;25.884;2023-10-13T02:26:59;9.10;;;3.10;;
47523;SDS011;33253;42.144;25.884;2023-10-13T02:29:29;7.35;;;2.78;;
47523;SDS011;33253;42.144;25.884;2023-10-13T02:31:55;6.20;;;3.15;;
47523;SDS011;33253;42.144;25.884;2023-10-13T02:34:21;10.70;;;3.60;;
47523;SDS011;33253;42.144;25.884;2023-10-13T02:36:48;7.35;;;3.22;;
47523;SDS011;33253;42.144;25.884;2023-10-13T02:39:14;9.00;;;2.95;;
47523;SDS011;33253;42.144;25.884;2023-10-13T02:42:01;6.93;;;2.92;;
47523;SDS011;33253;42.144;25.884;2023-10-13T02:44:31;5.55;;;3.17;;
47523;SDS011;33253;42.144;25.884;2023-10-13T02:47:01;6.97;;;4.20;;
47523;SDS011;33253;42.144;25.884;2023-10-13T02:49:49;10.48;;;4.63;;
47523;SDS011;33253;42.144;25.884;2023-10-13T02:52:14;7.75;;;3.10;;
47523;SDS011;33253;42.144;25.884;2023-10-13T02:54:40;7.68;;;3.80;;
47523;SDS011;33253;42.144;25.884;2023-10-13T02:57:12;5.63;;;3.05;;
47523;SDS011;33253;42.144;25.884;2023-10-13T02:59:41;4.32;;;2.25;;
47523;SDS011;33253;42.144;25.884;2023-10-13T03:02:13;7.35;;;2.75;;
47523;SDS011;33253;42.144;25.884;2023-10-13T03:07:14;4.53;;;2.60;;
47523;SDS011;33253;42.144;25.884;2023-10-13T03:09:49;9.75;;;3.55;;
47523;SDS011;33253;42.144;25.884;2023-10-13T03:12:17;9.13;;;3.17;;
47523;SDS011;33253;42.144;25.884;2023-10-13T03:14:43;6.18;;;2.85;;
47523;SDS011;33253;42.144;25.884;2023-10-13T03:17:21;8.50;;;2.97;;
47523;SDS011;33253;42.144;25.884;2023-10-13T03:19:58;4.95;;;3.08;;
47523;SDS011;33253;42.144;25.884;2023-10-13T03:22:25;6.72;;;2.63;;
47523;SDS011;33253;42.144;25.884;2023-10-13T03:24:57;8.45;;;2.88;;
47523;SDS011;33253;42.144;25.884;2023-10-13T03:27:31;6.18;;;3.05;;
47523;SDS011;33253;42.144;25.884;2023-10-13T03:30:18;5.40;;;3.20;;
47523;SDS011;33253;42.144;25.884;2023-10-13T03:32:45;7.10;;;3.00;;
47523;SDS011;33253;42.144;25.884;2023-10-13T03:35:37;6.78;;;3.35;;
47523;SDS011;33253;42.144;25.884;2023-10-13T03:38:05;5.15;;;3.13;;
47523;SDS011;33253;42.144;25.884;2023-10-13T03:40:57;9.05;;;3.03;;
47523;SDS011;33253;42.144;25.884;2023-10-13T03:43:44;9.05;;;3.35;;
47523;SDS011;33253;42.144;25.884;2023-10-13T03:46:10;7.28;;;3.53;;
47523;SDS011;33253;42.144;25.884;2023-10-13T03:48:36;7.68;;;3.40;;
47523;SDS011;33253;42.144;25.884;2023-10-13T03:51:21;8.32;;;3.08;;
47523;SDS011;33253;42.144;25.884;2023-10-13T03:53:48;6.88;;;3.10;;
47523;SDS011;33253;42.144;25.884;2023-10-13T03:56:20;4.57;;;3.22;;
47523;SDS011;33253;42.144;25.884;2023-10-13T03:59:13;5.80;;;3.08;;
47523;SDS011;33253;42.144;25.884;2023-10-13T04:01:38;5.80;;;3.63;;
47523;SDS011;33253;42.144;25.884;2023-10-13T04:04:16;9.43;;;3.25;;
47523;SDS011;33253;42.144;25.884;2023-10-13T04:07:20;7.05;;;3.40;;
47523;SDS011;33253;42.144;25.884;2023-10-13T04:10:07;6.63;;;3.67;;
47523;SDS011;33253;42.144;25.884;2023-10-13T04:12:55;5.18;;;3.28;;
47523;SDS011;33253;42.144;25.884;2023-10-13T04:15:39;10.85;;;3.20;;
47523;SDS011;33253;42.144;25.884;2023-10-13T04:18:27;7.80;;;2.97;;
47523;SDS011;33253;42.144;25.884;2023-10-13T04:21:15;8.63;;;2.95;;
47523;SDS011;33253;42.144;25.884;2023-10-13T04:24:01;5.68;;;3.28;;
47523;SDS011;33253;42.144;25.884;2023-10-13T04:26:42;6.60;;;3.38;;
47523;SDS011;33253;42.144;25.884;2023-10-13T04:29:28;5.65;;;3.13;;
47523;SDS011;33253;42.144;25.884;2023-10-13T04:32:11;8.35;;;3.53;;
47523;SDS011;33253;42.144;25.884;2023-10-13T04:34:40;6.88;;;3.63;;
47523;SDS011;33253;42.144;25.884;2023-10-13T04:37:13;6.15;;;3.13;;
47523;SDS011;33253;42.144;25.884;2023-10-13T04:39:55;10.02;;;4.00;;
47523;SDS011;33253;42.144;25.884;2023-10-13T04:42:36;4.93;;;3.10;;
47523;SDS011;33253;42.144;25.884;2023-10-13T04:45:14;6.18;;;3.55;;
47523;SDS011;33253;42.144;25.884;2023-10-13T04:48:01;7.55;;;3.28;;
47523;SDS011;33253;42.144;25.884;2023-10-13T04:50:43;6.78;;;3.30;;
47523;SDS011;33253;42.144;25.884;2023-10-13T04:55:57;7.38;;;3.38;;
47523;SDS011;33253;42.144;25.884;2023-10-13T04:58:29;21.30;;;4.43;;
47523;SDS011;33253;42.144;25.884;2023-10-13T05:01:18;6.82;;;3.22;;
47523;SDS011;33253;42.144;25.884;2023-10-13T05:03:49;5.47;;;3.28;;
47523;SDS011;33253;42.144;25.884;2023-10-13T05:06:47;9.70;;;4.20;;
47523;SDS011;33253;42.144;25.884;2023-10-13T05:09:38;10.50;;;4.57;;
47523;SDS011;33253;42.144;25.884;2023-10-13T05:12:22;10.88;;;4.82;;
47523;SDS011;33253;42.144;25.884;2023-10-13T05:15:06;13.35;;;5.35;;
47523;SDS011;33253;42.144;25.884;2023-10-13T05:17:50;8.13;;;4.00;;
47523;SDS011;33253;42.144;25.884;2023-10-13T05:20:34;6.45;;;4.25;;
47523;SDS011;33253;42.144;25.884;2023-10-13T05:23:18;15.43;;;4.90;;
47523;SDS011;33253;42.144;25.884;2023-10-13T05:26:02;7.85;;;3.80;;
47523;SDS011;33253;42.144;25.884;2023-10-13T05:28:46;7.75;;;3.60;;
47523;SDS011;33253;42.144;25.884;2023-10-13T05:31:30;12.90;;;3.90;;
47523;SDS011;33253;42.144;25.884;2023-10-13T05:34:15;9.57;;;4.25;;
47523;SDS011;33253;42.144;25.884;2023-10-13T05:36:59;9.55;;;3.67;;
47523;SDS011;33253;42.144;25.884;2023-10-13T05:39:43;17.55;;;4.32;;
47523;SDS011;33253;42.144;25.884;2023-10-13T05:42:27;7.95;;;3.83;;
47523;SDS011;33253;42.144;25.884;2023-10-13T05:45:11;12.45;;;4.70;;
47523;SDS011;33253;42.144;25.884;2023-10-13T05:47:42;9.85;;;3.50;;
47523;SDS011;33253;42.144;25.884;2023-10-13T05:50:08;9.15;;;3.92;;
47523;SDS011;33253;42.144;25.884;2023-10-13T05:52:47;10.65;;;3.65;;
47523;SDS011;33253;42.144;25.884;2023-10-13T05:55:28;8.20;;;3.45;;
47523;SDS011;33253;42.144;25.884;2023-10-13T05:58:13;6.28;;;3.58;;
47523;SDS011;33253;42.144;25.884;2023-10-13T06:00:58;8.75;;;3.90;;
47523;SDS011;33253;42.144;25.884;2023-10-13T06:03:42;8.18;;;3.97;;
47523;SDS011;33253;42.144;25.884;2023-10-13T06:06:26;8.45;;;3.90;;
47523;SDS011;33253;42.144;25.884;2023-10-13T06:09:10;9.68;;;4.47;;
47523;SDS011;33253;42.144;25.884;2023-10-13T06:11:54;9.27;;;4.13;;
47523;SDS011;33253;42.144;25.884;2023-10-13T06:14:38;8.35;;;4.30;;
47523;SDS011;33253;42.144;25.884;2023-10-13T06:17:22;11.77;;;4.50;;
47523;SDS011;33253;42.144;25.884;2023-10-13T06:20:07;8.05;;;4.13;;
47523;SDS011;33253;42.144;25.884;2023-10-13T06:22:51;10.52;;;4.32;;
47523;SDS011;33253;42.144;25.884;2023-10-13T06:25:35;9.98;;;4.78;;
47523;SDS011;33253;42.144;25.884;2023-10-13T06:28:19;11.60;;;5.00;;
47523;SDS011;33253;42.144;25.884;2023-10-13T06:31:04;9.75;;;4.72;;
47523;SDS011;33253;42.144;25.884;2023-10-13T06:33:34;9.05;;;5.45;;
47523;SDS011;33253;42.144;25.884;2023-10-13T06:36:01;29.38;;;6.57;;
47523;SDS011;33253;42.144;25.884;2023-10-13T06:38:27;14.05;;;5.85;;
47523;SDS011;33253;42.144;25.884;2023-10-13T06:41:01;28.33;;;7.45;;
47523;SDS011;33253;42.144;25.884;2023-10-13T06:43:31;10.85;;;5.85;;
47523;SDS011;33253;42.144;25.884;2023-10-13T06:45:57;10.55;;;5.80;;
47523;SDS011;33253;42.144;25.884;2023-10-13T06:48:28;9.20;;;6.00;;
47523;SDS011;33253;42.144;25.884;2023-10-13T06:50:59;11.80;;;5.97;;
47523;SDS011;33253;42.144;25.884;2023-10-13T06:53:29;9.23;;;5.13;;
47523;SDS011;33253;42.144;25.884;2023-10-13T06:55:55;13.10;;;5.57;;
47523;SDS011;33253;42.144;25.884;2023-10-13T06:58:23;9.68;;;5.70;;
47523;SDS011;33253;42.144;25.884;2023-10-13T07:00:50;13.18;;;5.90;;
47523;SDS011;33253;42.144;25.884;2023-10-13T07:03:20;10.90;;;5.78;;
47523;SDS011;33253;42.144;25.884;2023-10-13T07:05:46;10.93;;;6.18;;
47523;SDS011;33253;42.144;25.884;2023-10-13T07:08:14;15.75;;;5.95;;
47523;SDS011;33253;42.144;25.884;2023-10-13T07:10:51;10.60;;;6.28;;
47523;SDS011;33253;42.144;25.884;2023-10-13T07:13:26;16.25;;;5.95;;
47523;SDS011;33253;42.144;25.884;2023-10-13T07:15:53;8.48;;;6.20;;
47523;SDS011;33253;42.144;25.884;2023-10-13T07:18:25;11.25;;;6.03;;
47523;SDS011;33253;42.144;25.884;2023-10-13T07:20:51;10.98;;;5.72;;
47523;SDS011;33253;42.144;25.884;2023-10-13T07:23:17;11.75;;;6.47;;
47523;SDS011;33253;42.144;25.884;2023-10-13T07:25:50;14.27;;;6.38;;
47523;SDS011;33253;42.144;25.884;2023-10-13T07:28:18;11.10;;;5.75;;
47523;SDS011;33253;42.144;25.884;2023-10-13T07:30:43;12.82;;;5.85;;
47523;SDS011;33253;42.144;25.884;2023-10-13T07:33:18;11.52;;;6.53;;
47523;SDS011;33253;42.144;25.884;2023-10-13T07:35:46;10.68;;;5.70;;
47523;SDS011;33253;42.144;25.884;2023-10-13T07:38:17;11.98;;;6.03;;
47523;SDS011;33253;42.144;25.884;2023-10-13T07:40:46;12.05;;;5.63;;
47523;SDS011;33253;42.144;25.884;2023-10-13T07:43:17;9.77;;;6.07;;
47523;SDS011;33253;42.144;25.884;2023-10-13T07:45:48;10.07;;;5.97;;
47523;SDS011;33253;42.144;25.884;2023-10-13T07:48:23;11.15;;;6.55;;
47523;SDS011;33253;42.144;25.884;2023-10-13T07:51:00;13.48;;;7.20;;
47523;SDS011;33253;42.144;25.884;2023-10-13T07:53:28;9.82;;;5.70;;
47523;SDS011;33253;42.144;25.884;2023-10-13T07:56:00;16.60;;;7.28;;
47523;SDS011;33253;42.144;25.884;2023-10-13T07:58:34;17.30;;;6.82;;
47523;SDS011;33253;42.144;25.884;2023-10-13T08:01:12;19.10;;;6.57;;
47523;SDS011;33253;42.144;25.884;2023-10-13T08:03:42;11.40;;;5.93;;
47523;SDS011;33253;42.144;25.884;2023-10-13T08:06:12;14.10;;;6.60;;
47523;SDS011;33253;42.144;25.884;2023-10-13T08:08:44;8.63;;;5.35;;
47523;SDS011;33253;42.144;25.884;2023-10-13T08:11:15;13.10;;;6.60;;
47523;SDS011;33253;42.144;25.884;2023-10-13T08:13:47;12.30;;;5.32;;
47523;SDS011;33253;42.144;25.884;2023-10-13T08:16:19;10.20;;;5.32;;
47523;SDS011;33253;42.144;25.884;2023-10-13T08:18:55;12.68;;;4.78;;
47523;SDS011;33253;42.144;25.884;2023-10-13T08:21:21;9.07;;;5.13;;
47523;SDS011;33253;42.144;25.884;2023-10-13T08:23:52;10.75;;;4.70;;
47523;SDS011;33253;42.144;25.884;2023-10-13T08:26:24;8.35;;;4.90;;
47523;SDS011;33253;42.144;25.884;2023-10-13T08:29:09;9.93;;;3.92;;
47523;SDS011;33253;42.144;25.884;2023-10-13T08:31:47;12.25;;;4.20;;
47523;SDS011;33253;42.144;25.884;2023-10-13T08:34:34;7.03;;;4.28;;
47523;SDS011;33253;42.144;25.884;2023-10-13T08:37:06;7.75;;;3.40;;
47523;SDS011;33253;42.144;25.884;2023-10-13T08:39:51;10.98;;;5.10;;
47523;SDS011;33253;42.144;25.884;2023-10-13T08:42:28;7.38;;;3.80;;
47523;SDS011;33253;42.144;25.884;2023-10-13T08:45:04;8.60;;;4.38;;
47523;SDS011;33253;42.144;25.884;2023-10-13T08:47:50;12.43;;;4.50;;
47523;SDS011;33253;42.144;25.884;2023-10-13T08:50:37;8.70;;;4.07;;
47523;SDS011;33253;42.144;25.884;2023-10-13T08:58:39;9.32;;;4.35;;
47523;SDS011;33253;42.144;25.884;2023-10-13T09:04:03;8.57;;;4.25;;
47523;SDS011;33253;42.144;25.884;2023-10-13T09:12:14;11.38;;;3.92;;
47523;SDS011;33253;42.144;25.884;2023-10-13T09:14:53;7.85;;;3.22;;
47523;SDS011;33253;42.144;25.884;2023-10-13T09:17:22;7.43;;;3.38;;
47523;SDS011;33253;42.144;25.884;2023-10-13T09:20:02;8.25;;;3.65;;
47523;SDS011;33253;42.144;25.884;2023-10-13T09:22:50;7.70;;;3.30;;
47523;SDS011;33253;42.144;25.884;2023-10-13T09:25:29;5.13;;;2.97;;
47523;SDS011;33253;42.144;25.884;2023-10-13T09:27:59;6.65;;;3.22;;
47523;SDS011;33253;42.144;25.884;2023-10-13T09:30:25;9.18;;;2.83;;
47523;SDS011;33253;42.144;25.884;2023-10-13T09:33:03;9.52;;;3.38;;
47523;SDS011;33253;42.144;25.884;2023-10-13T09:35:30;9.27;;;2.80;;
47523;SDS011;33253;42.144;25.884;2023-10-13T09:38:02;5.60;;;3.10;;
47523;SDS011;33253;42.144;25.884;2023-10-13T09:40:28;6.05;;;3.08;;
47523;SDS011;33253;42.144;25.884;2023-10-13T09:42:58;7.80;;;3.17;;
47523;SDS011;33253;42.144;25.884;2023-10-13T09:45:32;7.32;;;3.70;;
47523;SDS011;33253;42.144;25.884;2023-10-13T09:48:05;10.95;;;3.35;;
47523;SDS011;33253;42.144;25.884;2023-10-13T09:50:51;5.60;;;3.30;;
47523;SDS011;33253;42.144;25.884;2023-10-13T09:53:44;10.85;;;5.38;;
47523;SDS011;33253;42.144;25.884;2023-10-13T09:56:20;11.18;;;5.13;;
47523;SDS011;33253;42.144;25.884;2023-10-13T09:58:58;4.65;;;2.92;;
47523;SDS011;33253;42.144;25.884;2023-10-13T10:01:47;4.25;;;2.50;;
47523;SDS011;33253;42.144;25.884;2023-10-13T10:04:16;8.05;;;2.63;;
47523;SDS011;33253;42.144;25.884;2023-10-13T10:07:01;5.93;;;3.08;;
47523;SDS011;33253;42.144;25.884;2023-10-13T10:09:27;6.45;;;3.17;;
47523;SDS011;33253;42.144;25.884;2023-10-13T10:18:17;5.10;;;2.90;;
47523;SDS011;33253;42.144;25.884;2023-10-13T10:20:50;7.68;;;2.70;;
47523;SDS011;33253;42.144;25.884;2023-10-13T10:23:27;8.80;;;3.38;;
47523;SDS011;33253;42.144;25.884;2023-10-13T10:26:15;8.10;;;3.03;;
47523;SDS011;33253;42.144;25.884;2023-10-13T10:28:50;4.95;;;3.13;;
47523;SDS011;33253;42.144;25.884;2023-10-13T10:31:15;5.18;;;2.92;;
47523;SDS011;33253;42.144;25.884;2023-10-13T10:33:45;6.35;;;3.05;;
47523;SDS011;33253;42.144;25.884;2023-10-13T10:36:17;5.57;;;3.17;;
47523;SDS011;33253;42.144;25.884;2023-10-13T10:38:55;12.60;;;3.97;;
47523;SDS011;33253;42.144;25.884;2023-10-13T10:41:25;5.63;;;3.35;;
47523;SDS011;33253;42.144;25.884;2023-10-13T10:43:57;10.38;;;3.10;;
47523;SDS011;33253;42.144;25.884;2023-10-13T10:46:28;14.48;;;3.88;;
47523;SDS011;33253;42.144;25.884;2023-10-13T10:49:03;8.30;;;2.85;;
47523;SDS011;33253;42.144;25.884;2023-10-13T10:51:52;12.80;;;3.33;;
47523;SDS011;33253;42.144;25.884;2023-10-13T10:54:25;5.35;;;2.65;;
47523;SDS011;33253;42.144;25.884;2023-10-13T10:56:58;7.10;;;3.00;;
47523;SDS011;33253;42.144;25.884;2023-10-13T10:59:36;6.78;;;3.40;;
47523;SDS011;33253;42.144;25.884;2023-10-13T11:04:32;6.60;;;3.25;;
47523;SDS011;33253;42.144;25.884;2023-10-13T11:07:06;7.90;;;3.03;;
47523;SDS011;33253;42.144;25.884;2023-10-13T11:09:32;4.97;;;3.35;;
47523;SDS011;33253;42.144;25.884;2023-10-13T11:14:45;5.68;;;3.00;;
47523;SDS011;33253;42.144;25.884;2023-10-13T11:17:22;5.75;;;2.60;;
47523;SDS011;33253;42.144;25.884;2023-10-13T11:20:11;8.00;;;2.80;;
47523;SDS011;33253;42.144;25.884;2023-10-13T11:22:41;4.95;;;2.97;;
47523;SDS011;33253;42.144;25.884;2023-10-13T11:25:19;6.72;;;2.85;;
47523;SDS011;33253;42.144;25.884;2023-10-13T11:28:09;4.35;;;2.63;;
47523;SDS011;33253;42.144;25.884;2023-10-13T11:30:52;5.57;;;2.90;;
47523;SDS011;33253;42.144;25.884;2023-10-13T11:33:23;5.22;;;2.85;;
47523;SDS011;33253;42.144;25.884;2023-10-13T11:35:51;4.57;;;2.72;;
47523;SDS011;33253;42.144;25.884;2023-10-13T11:38:22;6.40;;;2.92;;
47523;SDS011;33253;42.144;25.884;2023-10-13T11:43:37;12.13;;;3.08;;
47523;SDS011;33253;42.144;25.884;2023-10-13T11:46:15;3.95;;;2.65;;
47523;SDS011;33253;42.144;25.884;2023-10-13T11:49:06;5.40;;;2.92;;
47523;SDS011;33253;42.144;25.884;2023-10-13T11:51:44;7.40;;;3.08;;
47523;SDS011;33253;42.144;25.884;2023-10-13T11:54:14;7.97;;;3.38;;
47523;SDS011;33253;42.144;25.884;2023-10-13T11:56:41;6.80;;;3.10;;
47523;SDS011;33253;42.144;25.884;2023-10-13T11:59:07;7.47;;;3.20;;
47523;SDS011;33253;42.144;25.884;2023-10-13T12:01:41;8.07;;;2.75;;
47523;SDS011;33253;42.144;25.884;2023-10-13T12:04:38;9.18;;;3.35;;
47523;SDS011;33253;42.144;25.884;2023-10-13T12:07:24;22.48;;;3.22;;
47523;SDS011;33253;42.144;25.884;2023-10-13T12:10:05;10.23;;;3.22;;
47523;SDS011;33253;42.144;25.884;2023-10-13T12:12:31;6.28;;;2.70;;
47523;SDS011;33253;42.144;25.884;2023-10-13T12:15:05;9.07;;;3.25;;
47523;SDS011;33253;42.144;25.884;2023-10-13T12:17:34;8.13;;;2.22;;
47523;SDS011;33253;42.144;25.884;2023-10-13T12:20:00;6.30;;;2.90;;
47523;SDS011;33253;42.144;25.884;2023-10-13T12:25:04;6.18;;;3.08;;
47523;SDS011;33253;42.144;25.884;2023-10-13T12:27:51;9.23;;;3.42;;
47523;SDS011;33253;42.144;25.884;2023-10-13T12:30:22;6.88;;;3.00;;
47523;SDS011;33253;42.144;25.884;2023-10-13T12:33:00;7.57;;;3.07;;
47523;SDS011;33253;42.144;25.884;2023-10-13T12:35:34;5.78;;;3.47;;
47523;SDS011;33253;42.144;25.884;2023-10-13T12:38:01;11.68;;;3.63;;
47523;SDS011;33253;42.144;25.884;2023-10-13T12:40:52;9.82;;;3.20;;
47523;SDS011;33253;42.144;25.884;2023-10-13T12:43:36;8.77;;;3.45;;
47523;SDS011;33253;42.144;25.884;2023-10-13T12:46:37;6.60;;;3.03;;
47523;SDS011;33253;42.144;25.884;2023-10-13T12:49:21;12.85;;;3.78;;
47523;SDS011;33253;42.144;25.884;2023-10-13T12:52:05;9.60;;;3.50;;
47523;SDS011;33253;42.144;25.884;2023-10-13T12:54:41;7.78;;;3.75;;
47523;SDS011;33253;42.144;25.884;2023-10-13T12:57:21;13.00;;;3.85;;
47523;SDS011;33253;42.144;25.884;2023-10-13T12:59:48;9.00;;;3.50;;
47523;SDS011;33253;42.144;25.884;2023-10-13T13:02:14;4.65;;;2.80;;
47523;SDS011;33253;42.144;25.884;2023-10-13T13:04:42;9.57;;;3.83;;
47523;SDS011;33253;42.144;25.884;2023-10-13T13:07:10;13.80;;;4.18;;
47523;SDS011;33253;42.144;25.884;2023-10-13T13:09:42;13.80;;;3.88;;
47523;SDS011;33253;42.144;25.884;2023-10-13T13:12:08;11.52;;;4.22;;
47523;SDS011;33253;42.144;25.884;2023-10-13T13:17:05;13.43;;;4.72;;
47523;SDS011;33253;42.144;25.884;2023-10-13T13:19:34;10.32;;;3.97;;
47523;SDS011;33253;42.144;25.884;2023-10-13T13:22:07;16.90;;;4.40;;
47523;SDS011;33253;42.144;25.884;2023-10-13T13:24:37;12.18;;;4.25;;
47523;SDS011;33253;42.144;25.884;2023-10-13T13:27:13;14.77;;;4.80;;
47523;SDS011;33253;42.144;25.884;2023-10-13T13:29:48;11.02;;;4.13;;
47523;SDS011;33253;42.144;25.884;2023-10-13T13:32:14;11.13;;;4.55;;
47523;SDS011;33253;42.144;25.884;2023-10-13T13:34:44;17.77;;;4.82;;
47523;SDS011;33253;42.144;25.884;2023-10-13T13:37:18;15.70;;;5.22;;
47523;SDS011;33253;42.144;25.884;2023-10-13T13:39:45;11.73;;;4.13;;
47523;SDS011;33253;42.144;25.884;2023-10-13T13:42:10;27.45;;;6.82;;
47523;SDS011;33253;42.144;25.884;2023-10-13T13:44:42;13.40;;;4.40;;
47523;SDS011;33253;42.144;25.884;2023-10-13T13:47:13;11.65;;;3.97;;
47523;SDS011;33253;42.144;25.884;2023-10-13T13:49:40;11.35;;;4.00;;
47523;SDS011;33253;42.144;25.884;2023-10-13T13:52:11;12.98;;;3.80;;
47523;SDS011;33253;42.144;25.884;2023-10-13T13:54:42;11.10;;;4.03;;
47523;SDS011;33253;42.144;25.884;2023-10-13T13:57:08;11.20;;;3.72;;
47523;SDS011;33253;42.144;25.884;2023-10-13T13:59:33;15.60;;;3.97;;
47523;SDS011;33253;42.144;25.884;2023-10-13T14:02:01;15.82;;;3.80;;
47523;SDS011;33253;42.144;25.884;2023-10-13T14:04:31;13.48;;;4.25;;
47523;SDS011;33253;42.144;25.884;2023-10-13T14:06:56;12.82;;;3.78;;
47523;SDS011;33253;42.144;25.884;2023-10-13T14:09:22;15.25;;;3.92;;
47523;SDS011;33253;42.144;25.884;2023-10-13T14:12:05;17.00;;;3.60;;
47523;SDS011;33253;42.144;25.884;2023-10-13T14:14:49;15.27;;;5.03;;
47523;SDS011;33253;42.144;25.884;2023-10-13T14:17:20;10.32;;;3.55;;
47523;SDS011;33253;42.144;25.884;2023-10-13T14:19:57;11.20;;;4.30;;
47523;SDS011;33253;42.144;25.884;2023-10-13T14:22:23;9.35;;;3.15;;
47523;SDS011;33253;42.144;25.884;2023-10-13T14:24:52;13.85;;;4.00;;
47523;SDS011;33253;42.144;25.884;2023-10-13T14:27:20;11.60;;;4.27;;
47523;SDS011;33253;42.144;25.884;2023-10-13T14:29:48;14.75;;;3.90;;
47523;SDS011;33253;42.144;25.884;2023-10-13T14:32:18;9.10;;;3.17;;
47523;SDS011;33253;42.144;25.884;2023-10-13T14:34:45;8.90;;;3.40;;
47523;SDS011;33253;42.144;25.884;2023-10-13T14:37:19;10.95;;;3.67;;
47523;SDS011;33253;42.144;25.884;2023-10-13T14:39:54;13.48;;;3.65;;
47523;SDS011;33253;42.144;25.884;2023-10-13T14:42:22;15.10;;;3.42;;
47523;SDS011;33253;42.144;25.884;2023-10-13T14:44:51;13.45;;;3.58;;
47523;SDS011;33253;42.144;25.884;2023-10-13T14:47:23;13.82;;;3.97;;
47523;SDS011;33253;42.144;25.884;2023-10-13T14:52:21;17.63;;;3.92;;
47523;SDS011;33253;42.144;25.884;2023-10-13T14:54:47;12.18;;;4.35;;
47523;SDS011;33253;42.144;25.884;2023-10-13T14:57:16;13.43;;;3.72;;
47523;SDS011;33253;42.144;25.884;2023-10-13T14:59:41;12.00;;;3.47;;
47523;SDS011;33253;42.144;25.884;2023-10-13T15:02:06;15.95;;;3.70;;
47523;SDS011;33253;42.144;25.884;2023-10-13T15:04:32;10.55;;;4.20;;
47523;SDS011;33253;42.144;25.884;2023-10-13T15:06:59;13.80;;;3.38;;
47523;SDS011;33253;42.144;25.884;2023-10-13T15:09:28;7.90;;;3.13;;
47523;SDS011;33253;42.144;25.884;2023-10-13T15:11:54;8.43;;;2.90;;
47523;SDS011;33253;42.144;25.884;2023-10-13T15:14:20;23.92;;;3.75;;
47523;SDS011;33253;42.144;25.884;2023-10-13T15:16:45;10.80;;;3.30;;
47523;SDS011;33253;42.144;25.884;2023-10-13T15:19:11;11.40;;;3.20;;
47523;SDS011;33253;42.144;25.884;2023-10-13T15:21:37;14.88;;;4.38;;
47523;SDS011;33253;42.144;25.884;2023-10-13T15:24:05;22.10;;;4.10;;
47523;SDS011;33253;42.144;25.884;2023-10-13T15:26:46;13.35;;;4.43;;
47523;SDS011;33253;42.144;25.884;2023-10-13T15:29:16;19.85;;;3.97;;
47523;SDS011;33253;42.144;25.884;2023-10-13T15:31:50;20.65;;;4.45;;
47523;SDS011;33253;42.144;25.884;2023-10-13T15:34:25;12.05;;;4.07;;
47523;SDS011;33253;42.144;25.884;2023-10-13T15:36:53;10.93;;;4.07;;
47523;SDS011;33253;42.144;25.884;2023-10-13T15:39:20;11.13;;;4.55;;
47523;SDS011;33253;42.144;25.884;2023-10-13T15:42:05;22.52;;;4.43;;
47523;SDS011;33253;42.144;25.884;2023-10-13T15:44:33;18.30;;;4.18;;
47523;SDS011;33253;42.144;25.884;2023-10-13T15:46:59;14.60;;;4.90;;
47523;SDS011;33253;42.144;25.884;2023-10-13T15:49:24;23.80;;;5.38;;
47523;SDS011;33253;42.144;25.884;2023-10-13T15:51:53;25.48;;;4.93;;